sensor_id;sensor_type;location;lat;lon;timestamp;P1;durP1;ratioP1;P2;durP2;ratioP2
52320;SDS011;38261;54.090;13.382;2023-06-22T00:00:06;13.73;;;7.03;;
52320;SDS011;38261;54.090;13.382;2023-06-22T00:01:33;11.87;;;7.50;;
52320;SDS011;38261;54.090;13.382;2023-06-22T00:02:56;11.57;;;6.90;;
52320;SDS011;38261;54.090;13.382;2023-06-22T00:04:18;9.57;;;6.20;;
52320;SDS011;38261;54.090;13.382;2023-06-22T00:05:41;9.00;;;7.47;;
52320;SDS011;38261;54.090;13.382;2023-06-22T00:07:03;8.97;;;6.80;;
52320;SDS011;38261;54.090;13.382;2023-06-22T00:08:25;11.93;;;6.73;;
52320;SDS011;38261;54.090;13.382;2023-06-22T00:09:47;13.83;;;6.50;;
52320;SDS011;38261;54.090;13.382;2023-06-22T00:11:09;10.80;;;6.00;;
52320;SDS011;38261;54.090;13.382;2023-06-22T00:12:31;11.33;;;6.40;;
52320;SDS011;38261;54.090;13.382;2023-06-22T00:13:53;9.63;;;6.40;;
52320;SDS011;38261;54.090;13.382;2023-06-22T00:15:15;8.33;;;6.60;;
52320;SDS011;38261;54.090;13.382;2023-06-22T00:16:38;9.13;;;6.50;;
52320;SDS011;38261;54.090;13.382;2023-06-22T00:18:00;11.03;;;6.93;;
52320;SDS011;38261;54.090;13.382;2023-06-22T00:19:23;9.70;;;6.50;;
52320;SDS011;38261;54.090;13.382;2023-06-22T00:20:46;10.80;;;6.90;;
52320;SDS011;38261;54.090;13.382;2023-06-22T00:22:08;11.57;;;7.00;;
52320;SDS011;38261;54.090;13.382;2023-06-22T00:23:30;10.23;;;6.53;;
52320;SDS011;38261;54.090;13.382;2023-06-22T00:24:55;12.20;;;8.03;;
52320;SDS011;38261;54.090;13.382;2023-06-22T00:26:18;8.87;;;6.80;;
52320;SDS011;38261;54.090;13.382;2023-06-22T00:27:40;12.77;;;8.20;;
52320;SDS011;38261;54.090;13.382;2023-06-22T00:29:03;11.83;;;7.60;;
52320;SDS011;38261;54.090;13.382;2023-06-22T00:30:25;17.10;;;7.80;;
52320;SDS011;38261;54.090;13.382;2023-06-22T00:31:48;12.80;;;7.67;;
52320;SDS011;38261;54.090;13.382;2023-06-22T00:33:10;10.77;;;6.70;;
52320;SDS011;38261;54.090;13.382;2023-06-22T00:34:32;11.20;;;7.00;;
52320;SDS011;38261;54.090;13.382;2023-06-22T00:35:54;15.60;;;7.90;;
52320;SDS011;38261;54.090;13.382;2023-06-22T00:37:17;12.70;;;7.33;;
52320;SDS011;38261;54.090;13.382;2023-06-22T00:38:39;12.83;;;7.73;;
52320;SDS011;38261;54.090;13.382;2023-06-22T00:40:04;12.50;;;7.10;;
52320;SDS011;38261;54.090;13.382;2023-06-22T00:41:27;10.13;;;7.80;;
52320;SDS011;38261;54.090;13.382;2023-06-22T00:42:50;12.57;;;7.63;;
52320;SDS011;38261;54.090;13.382;2023-06-22T00:44:12;12.70;;;7.97;;
52320;SDS011;38261;54.090;13.382;2023-06-22T00:45:34;10.93;;;8.57;;
52320;SDS011;38261;54.090;13.382;2023-06-22T00:46:56;12.40;;;8.30;;
52320;SDS011;38261;54.090;13.382;2023-06-22T00:48:18;14.33;;;9.10;;
52320;SDS011;38261;54.090;13.382;2023-06-22T00:49:40;16.17;;;9.40;;
52320;SDS011;38261;54.090;13.382;2023-06-22T00:51:03;12.47;;;8.13;;
52320;SDS011;38261;54.090;13.382;2023-06-22T00:52:25;17.50;;;9.53;;
52320;SDS011;38261;54.090;13.382;2023-06-22T00:53:51;11.80;;;8.70;;
52320;SDS011;38261;54.090;13.382;2023-06-22T00:55:14;18.10;;;8.60;;
52320;SDS011;38261;54.090;13.382;2023-06-22T00:56:40;14.23;;;9.90;;
52320;SDS011;38261;54.090;13.382;2023-06-22T00:58:04;15.03;;;8.60;;
52320;SDS011;38261;54.090;13.382;2023-06-22T00:59:31;13.57;;;9.00;;
52320;SDS011;38261;54.090;13.382;2023-06-22T01:00:54;16.03;;;9.80;;
52320;SDS011;38261;54.090;13.382;2023-06-22T01:02:16;17.40;;;10.00;;
52320;SDS011;38261;54.090;13.382;2023-06-22T01:03:39;16.07;;;9.73;;
52320;SDS011;38261;54.090;13.382;2023-06-22T01:05:01;13.07;;;9.60;;
52320;SDS011;38261;54.090;13.382;2023-06-22T01:06:26;14.03;;;10.10;;
52320;SDS011;38261;54.090;13.382;2023-06-22T01:09:51;16.97;;;11.17;;
52320;SDS011;38261;54.090;13.382;2023-06-22T01:11:59;20.43;;;11.47;;
52320;SDS011;38261;54.090;13.382;2023-06-22T01:14:51;15.53;;;10.23;;
52320;SDS011;38261;54.090;13.382;2023-06-22T01:16:25;16.70;;;10.97;;
52320;SDS011;38261;54.090;13.382;2023-06-22T01:17:49;20.60;;;9.87;;
52320;SDS011;38261;54.090;13.382;2023-06-22T01:20:47;15.57;;;10.57;;
52320;SDS011;38261;54.090;13.382;2023-06-22T01:22:10;13.00;;;9.30;;
52320;SDS011;38261;54.090;13.382;2023-06-22T01:25:46;15.07;;;9.73;;
52320;SDS011;38261;54.090;13.382;2023-06-22T01:28:47;16.77;;;9.93;;
52320;SDS011;38261;54.090;13.382;2023-06-22T01:30:12;12.10;;;8.60;;
52320;SDS011;38261;54.090;13.382;2023-06-22T01:31:37;16.60;;;8.93;;
52320;SDS011;38261;54.090;13.382;2023-06-22T01:33:01;13.40;;;10.00;;
52320;SDS011;38261;54.090;13.382;2023-06-22T01:34:25;14.37;;;10.00;;
52320;SDS011;38261;54.090;13.382;2023-06-22T01:35:48;16.13;;;9.90;;
52320;SDS011;38261;54.090;13.382;2023-06-22T01:37:10;15.33;;;9.67;;
52320;SDS011;38261;54.090;13.382;2023-06-22T01:38:33;14.90;;;8.30;;
52320;SDS011;38261;54.090;13.382;2023-06-22T01:39:57;22.00;;;10.30;;
52320;SDS011;38261;54.090;13.382;2023-06-22T01:41:20;13.60;;;9.20;;
52320;SDS011;38261;54.090;13.382;2023-06-22T01:42:46;13.37;;;9.13;;
52320;SDS011;38261;54.090;13.382;2023-06-22T01:44:09;17.70;;;9.60;;
52320;SDS011;38261;54.090;13.382;2023-06-22T01:45:33;12.53;;;9.83;;
52320;SDS011;38261;54.090;13.382;2023-06-22T01:46:55;14.93;;;10.03;;
52320;SDS011;38261;54.090;13.382;2023-06-22T01:48:18;17.40;;;11.17;;
52320;SDS011;38261;54.090;13.382;2023-06-22T01:49:41;16.97;;;9.67;;
52320;SDS011;38261;54.090;13.382;2023-06-22T01:51:03;15.07;;;9.70;;
52320;SDS011;38261;54.090;13.382;2023-06-22T01:52:26;15.33;;;10.00;;
52320;SDS011;38261;54.090;13.382;2023-06-22T01:53:48;13.23;;;8.60;;
52320;SDS011;38261;54.090;13.382;2023-06-22T01:55:10;14.77;;;9.67;;
52320;SDS011;38261;54.090;13.382;2023-06-22T01:56:32;13.80;;;8.00;;
52320;SDS011;38261;54.090;13.382;2023-06-22T01:57:55;11.40;;;9.10;;
52320;SDS011;38261;54.090;13.382;2023-06-22T01:59:18;10.77;;;8.80;;
52320;SDS011;38261;54.090;13.382;2023-06-22T02:02:36;13.77;;;9.50;;
52320;SDS011;38261;54.090;13.382;2023-06-22T02:04:06;14.13;;;10.07;;
52320;SDS011;38261;54.090;13.382;2023-06-22T02:05:35;16.30;;;9.00;;
52320;SDS011;38261;54.090;13.382;2023-06-22T02:07:05;13.53;;;9.57;;
52320;SDS011;38261;54.090;13.382;2023-06-22T02:08:41;16.00;;;9.40;;
52320;SDS011;38261;54.090;13.382;2023-06-22T02:10:08;19.20;;;9.93;;
52320;SDS011;38261;54.090;13.382;2023-06-22T02:11:35;13.00;;;8.90;;
52320;SDS011;38261;54.090;13.382;2023-06-22T02:12:58;15.97;;;9.20;;
52320;SDS011;38261;54.090;13.382;2023-06-22T02:14:23;17.97;;;10.53;;
52320;SDS011;38261;54.090;13.382;2023-06-22T02:15:46;21.60;;;10.80;;
52320;SDS011;38261;54.090;13.382;2023-06-22T02:17:09;22.03;;;10.20;;
52320;SDS011;38261;54.090;13.382;2023-06-22T02:18:32;14.93;;;10.20;;
52320;SDS011;38261;54.090;13.382;2023-06-22T02:19:57;20.97;;;10.40;;
52320;SDS011;38261;54.090;13.382;2023-06-22T02:21:19;18.90;;;11.73;;
52320;SDS011;38261;54.090;13.382;2023-06-22T02:22:42;18.70;;;10.80;;
52320;SDS011;38261;54.090;13.382;2023-06-22T02:24:05;15.00;;;10.27;;
52320;SDS011;38261;54.090;13.382;2023-06-22T02:25:27;15.10;;;10.50;;
52320;SDS011;38261;54.090;13.382;2023-06-22T02:26:49;25.37;;;12.47;;
52320;SDS011;38261;54.090;13.382;2023-06-22T02:28:11;15.70;;;11.30;;
52320;SDS011;38261;54.090;13.382;2023-06-22T02:29:33;18.60;;;10.87;;
52320;SDS011;38261;54.090;13.382;2023-06-22T02:30:56;20.00;;;11.17;;
52320;SDS011;38261;54.090;13.382;2023-06-22T02:32:18;14.20;;;10.60;;
52320;SDS011;38261;54.090;13.382;2023-06-22T02:33:40;17.97;;;10.77;;
52320;SDS011;38261;54.090;13.382;2023-06-22T02:35:02;14.90;;;10.50;;
52320;SDS011;38261;54.090;13.382;2023-06-22T02:36:27;16.60;;;11.33;;
52320;SDS011;38261;54.090;13.382;2023-06-22T02:37:52;17.67;;;11.10;;
52320;SDS011;38261;54.090;13.382;2023-06-22T02:39:14;15.67;;;11.53;;
52320;SDS011;38261;54.090;13.382;2023-06-22T02:40:36;20.57;;;11.10;;
52320;SDS011;38261;54.090;13.382;2023-06-22T02:41:58;14.27;;;9.77;;
52320;SDS011;38261;54.090;13.382;2023-06-22T02:43:20;14.60;;;9.80;;
52320;SDS011;38261;54.090;13.382;2023-06-22T02:44:42;18.30;;;10.40;;
52320;SDS011;38261;54.090;13.382;2023-06-22T02:46:04;14.37;;;10.00;;
52320;SDS011;38261;54.090;13.382;2023-06-22T02:47:27;16.20;;;10.40;;
52320;SDS011;38261;54.090;13.382;2023-06-22T02:48:49;16.93;;;10.37;;
52320;SDS011;38261;54.090;13.382;2023-06-22T02:50:11;14.10;;;9.03;;
52320;SDS011;38261;54.090;13.382;2023-06-22T02:51:33;18.20;;;12.13;;
52320;SDS011;38261;54.090;13.382;2023-06-22T02:52:56;20.03;;;11.30;;
52320;SDS011;38261;54.090;13.382;2023-06-22T02:54:18;17.93;;;11.70;;
52320;SDS011;38261;54.090;13.382;2023-06-22T02:55:40;13.37;;;9.53;;
52320;SDS011;38261;54.090;13.382;2023-06-22T02:57:03;20.13;;;10.50;;
52320;SDS011;38261;54.090;13.382;2023-06-22T02:58:25;10.83;;;8.40;;
52320;SDS011;38261;54.090;13.382;2023-06-22T02:59:47;13.20;;;9.20;;
52320;SDS011;38261;54.090;13.382;2023-06-22T03:01:09;13.60;;;9.17;;
52320;SDS011;38261;54.090;13.382;2023-06-22T03:02:34;12.57;;;10.10;;
52320;SDS011;38261;54.090;13.382;2023-06-22T03:03:56;12.47;;;9.03;;
52320;SDS011;38261;54.090;13.382;2023-06-22T03:05:19;17.03;;;9.57;;
52320;SDS011;38261;54.090;13.382;2023-06-22T03:06:41;16.57;;;9.73;;
52320;SDS011;38261;54.090;13.382;2023-06-22T03:08:03;19.57;;;9.60;;
52320;SDS011;38261;54.090;13.382;2023-06-22T03:09:25;15.97;;;10.30;;
52320;SDS011;38261;54.090;13.382;2023-06-22T03:10:49;19.50;;;11.40;;
52320;SDS011;38261;54.090;13.382;2023-06-22T03:12:11;15.30;;;10.37;;
52320;SDS011;38261;54.090;13.382;2023-06-22T03:13:33;18.10;;;10.80;;
52320;SDS011;38261;54.090;13.382;2023-06-22T03:14:55;18.87;;;9.93;;
52320;SDS011;38261;54.090;13.382;2023-06-22T03:16:17;13.80;;;9.67;;
52320;SDS011;38261;54.090;13.382;2023-06-22T03:17:40;15.73;;;9.50;;
52320;SDS011;38261;54.090;13.382;2023-06-22T03:19:03;16.23;;;9.83;;
52320;SDS011;38261;54.090;13.382;2023-06-22T03:20:25;14.87;;;9.23;;
52320;SDS011;38261;54.090;13.382;2023-06-22T03:21:49;15.60;;;9.23;;
52320;SDS011;38261;54.090;13.382;2023-06-22T03:23:11;15.50;;;8.40;;
52320;SDS011;38261;54.090;13.382;2023-06-22T03:24:33;14.23;;;9.50;;
52320;SDS011;38261;54.090;13.382;2023-06-22T03:25:56;14.20;;;8.97;;
52320;SDS011;38261;54.090;13.382;2023-06-22T03:27:18;14.33;;;9.70;;
52320;SDS011;38261;54.090;13.382;2023-06-22T03:28:40;21.33;;;10.17;;
52320;SDS011;38261;54.090;13.382;2023-06-22T03:30:02;15.73;;;9.70;;
52320;SDS011;38261;54.090;13.382;2023-06-22T03:31:25;13.90;;;9.63;;
52320;SDS011;38261;54.090;13.382;2023-06-22T03:32:47;15.20;;;9.20;;
52320;SDS011;38261;54.090;13.382;2023-06-22T03:34:09;18.17;;;9.23;;
52320;SDS011;38261;54.090;13.382;2023-06-22T03:35:31;19.43;;;10.17;;
52320;SDS011;38261;54.090;13.382;2023-06-22T03:36:54;12.93;;;9.57;;
52320;SDS011;38261;54.090;13.382;2023-06-22T03:38:16;16.00;;;9.77;;
52320;SDS011;38261;54.090;13.382;2023-06-22T03:39:39;16.60;;;9.50;;
52320;SDS011;38261;54.090;13.382;2023-06-22T03:41:01;15.50;;;10.13;;
52320;SDS011;38261;54.090;13.382;2023-06-22T03:42:23;16.67;;;8.60;;
52320;SDS011;38261;54.090;13.382;2023-06-22T03:43:45;15.40;;;10.70;;
52320;SDS011;38261;54.090;13.382;2023-06-22T03:45:08;17.27;;;9.90;;
52320;SDS011;38261;54.090;13.382;2023-06-22T03:46:30;13.57;;;10.23;;
52320;SDS011;38261;54.090;13.382;2023-06-22T03:47:53;18.30;;;11.27;;
52320;SDS011;38261;54.090;13.382;2023-06-22T03:49:15;16.97;;;10.87;;
52320;SDS011;38261;54.090;13.382;2023-06-22T03:50:37;13.17;;;9.27;;
52320;SDS011;38261;54.090;13.382;2023-06-22T03:52:00;14.47;;;9.53;;
52320;SDS011;38261;54.090;13.382;2023-06-22T03:53:23;17.83;;;11.30;;
52320;SDS011;38261;54.090;13.382;2023-06-22T03:54:46;13.40;;;9.30;;
52320;SDS011;38261;54.090;13.382;2023-06-22T03:56:08;15.13;;;10.03;;
52320;SDS011;38261;54.090;13.382;2023-06-22T03:57:30;17.40;;;9.70;;
52320;SDS011;38261;54.090;13.382;2023-06-22T03:58:52;16.00;;;9.67;;
52320;SDS011;38261;54.090;13.382;2023-06-22T04:00:14;13.00;;;8.63;;
52320;SDS011;38261;54.090;13.382;2023-06-22T04:01:39;17.23;;;10.20;;
52320;SDS011;38261;54.090;13.382;2023-06-22T04:03:01;14.43;;;8.90;;
52320;SDS011;38261;54.090;13.382;2023-06-22T04:04:24;14.90;;;9.73;;
52320;SDS011;38261;54.090;13.382;2023-06-22T04:05:46;12.20;;;9.03;;
52320;SDS011;38261;54.090;13.382;2023-06-22T04:07:09;14.93;;;9.63;;
52320;SDS011;38261;54.090;13.382;2023-06-22T04:08:32;15.87;;;9.00;;
52320;SDS011;38261;54.090;13.382;2023-06-22T04:09:54;18.40;;;9.47;;
52320;SDS011;38261;54.090;13.382;2023-06-22T04:11:17;15.43;;;9.13;;
52320;SDS011;38261;54.090;13.382;2023-06-22T04:12:39;14.93;;;8.97;;
52320;SDS011;38261;54.090;13.382;2023-06-22T04:14:02;20.03;;;8.63;;
52320;SDS011;38261;54.090;13.382;2023-06-22T04:15:24;10.40;;;7.90;;
52320;SDS011;38261;54.090;13.382;2023-06-22T04:16:46;18.97;;;9.30;;
52320;SDS011;38261;54.090;13.382;2023-06-22T04:18:08;16.73;;;9.33;;
52320;SDS011;38261;54.090;13.382;2023-06-22T04:19:31;13.17;;;9.27;;
52320;SDS011;38261;54.090;13.382;2023-06-22T04:20:53;18.33;;;9.03;;
52320;SDS011;38261;54.090;13.382;2023-06-22T04:22:15;15.43;;;9.20;;
52320;SDS011;38261;54.090;13.382;2023-06-22T04:23:37;17.00;;;9.47;;
52320;SDS011;38261;54.090;13.382;2023-06-22T04:24:59;12.70;;;9.40;;
52320;SDS011;38261;54.090;13.382;2023-06-22T04:26:21;18.23;;;9.27;;
52320;SDS011;38261;54.090;13.382;2023-06-22T04:27:44;23.00;;;9.67;;
52320;SDS011;38261;54.090;13.382;2023-06-22T04:29:06;16.50;;;9.90;;
52320;SDS011;38261;54.090;13.382;2023-06-22T04:30:30;14.93;;;8.57;;
52320;SDS011;38261;54.090;13.382;2023-06-22T04:31:54;16.70;;;9.33;;
52320;SDS011;38261;54.090;13.382;2023-06-22T04:33:19;11.43;;;9.30;;
52320;SDS011;38261;54.090;13.382;2023-06-22T04:34:41;22.60;;;9.67;;
52320;SDS011;38261;54.090;13.382;2023-06-22T04:36:04;16.87;;;9.00;;
52320;SDS011;38261;54.090;13.382;2023-06-22T04:37:26;16.17;;;8.97;;
52320;SDS011;38261;54.090;13.382;2023-06-22T04:38:48;12.50;;;8.50;;
52320;SDS011;38261;54.090;13.382;2023-06-22T04:40:13;16.93;;;8.20;;
52320;SDS011;38261;54.090;13.382;2023-06-22T04:41:36;21.10;;;9.20;;
52320;SDS011;38261;54.090;13.382;2023-06-22T04:43:05;14.67;;;9.10;;
52320;SDS011;38261;54.090;13.382;2023-06-22T04:44:28;16.70;;;9.27;;
52320;SDS011;38261;54.090;13.382;2023-06-22T04:45:50;15.23;;;9.23;;
52320;SDS011;38261;54.090;13.382;2023-06-22T04:47:14;17.20;;;9.27;;
52320;SDS011;38261;54.090;13.382;2023-06-22T04:48:36;14.93;;;9.53;;
52320;SDS011;38261;54.090;13.382;2023-06-22T04:49:58;16.77;;;8.60;;
52320;SDS011;38261;54.090;13.382;2023-06-22T04:51:20;15.60;;;10.13;;
52320;SDS011;38261;54.090;13.382;2023-06-22T04:52:43;12.43;;;8.80;;
52320;SDS011;38261;54.090;13.382;2023-06-22T04:54:09;12.33;;;7.90;;
52320;SDS011;38261;54.090;13.382;2023-06-22T04:55:32;17.60;;;9.70;;
52320;SDS011;38261;54.090;13.382;2023-06-22T04:56:54;11.93;;;7.87;;
52320;SDS011;38261;54.090;13.382;2023-06-22T04:58:19;26.93;;;9.07;;
52320;SDS011;38261;54.090;13.382;2023-06-22T04:59:43;11.80;;;8.20;;
52320;SDS011;38261;54.090;13.382;2023-06-22T05:01:06;14.03;;;7.83;;
52320;SDS011;38261;54.090;13.382;2023-06-22T05:02:30;12.47;;;8.00;;
52320;SDS011;38261;54.090;13.382;2023-06-22T05:03:54;19.83;;;8.07;;
52320;SDS011;38261;54.090;13.382;2023-06-22T05:05:17;13.00;;;8.50;;
52320;SDS011;38261;54.090;13.382;2023-06-22T05:06:39;16.83;;;8.60;;
52320;SDS011;38261;54.090;13.382;2023-06-22T05:08:02;12.47;;;8.33;;
52320;SDS011;38261;54.090;13.382;2023-06-22T05:09:29;20.20;;;9.47;;
52320;SDS011;38261;54.090;13.382;2023-06-22T05:10:51;12.70;;;8.57;;
52320;SDS011;38261;54.090;13.382;2023-06-22T05:12:27;12.27;;;8.20;;
52320;SDS011;38261;54.090;13.382;2023-06-22T05:13:50;10.97;;;8.60;;
52320;SDS011;38261;54.090;13.382;2023-06-22T05:15:13;12.20;;;7.80;;
52320;SDS011;38261;54.090;13.382;2023-06-22T05:16:36;14.40;;;8.13;;
52320;SDS011;38261;54.090;13.382;2023-06-22T05:17:59;11.57;;;8.63;;
52320;SDS011;38261;54.090;13.382;2023-06-22T05:19:26;14.00;;;8.37;;
52320;SDS011;38261;54.090;13.382;2023-06-22T05:20:55;10.57;;;7.80;;
52320;SDS011;38261;54.090;13.382;2023-06-22T05:22:17;12.57;;;8.40;;
52320;SDS011;38261;54.090;13.382;2023-06-22T05:23:40;14.33;;;9.20;;
52320;SDS011;38261;54.090;13.382;2023-06-22T05:25:02;13.50;;;8.30;;
52320;SDS011;38261;54.090;13.382;2023-06-22T05:26:25;12.33;;;8.60;;
52320;SDS011;38261;54.090;13.382;2023-06-22T05:27:48;14.20;;;9.77;;
52320;SDS011;38261;54.090;13.382;2023-06-22T05:29:13;9.90;;;7.50;;
52320;SDS011;38261;54.090;13.382;2023-06-22T05:30:35;16.17;;;9.07;;
52320;SDS011;38261;54.090;13.382;2023-06-22T05:31:58;14.97;;;8.50;;
52320;SDS011;38261;54.090;13.382;2023-06-22T05:33:20;15.63;;;8.20;;
52320;SDS011;38261;54.090;13.382;2023-06-22T05:34:43;10.53;;;6.97;;
52320;SDS011;38261;54.090;13.382;2023-06-22T05:36:05;20.43;;;8.57;;
52320;SDS011;38261;54.090;13.382;2023-06-22T05:37:28;16.50;;;8.07;;
52320;SDS011;38261;54.090;13.382;2023-06-22T05:38:51;11.80;;;8.00;;
52320;SDS011;38261;54.090;13.382;2023-06-22T05:40:14;9.87;;;7.03;;
52320;SDS011;38261;54.090;13.382;2023-06-22T05:41:37;10.83;;;6.97;;
52320;SDS011;38261;54.090;13.382;2023-06-22T05:42:59;13.73;;;7.30;;
52320;SDS011;38261;54.090;13.382;2023-06-22T05:44:23;10.00;;;8.07;;
52320;SDS011;38261;54.090;13.382;2023-06-22T05:45:45;9.60;;;6.37;;
52320;SDS011;38261;54.090;13.382;2023-06-22T05:47:08;10.90;;;6.83;;
52320;SDS011;38261;54.090;13.382;2023-06-22T05:48:31;9.00;;;6.50;;
52320;SDS011;38261;54.090;13.382;2023-06-22T05:49:53;13.13;;;7.33;;
52320;SDS011;38261;54.090;13.382;2023-06-22T05:51:16;9.27;;;6.67;;
52320;SDS011;38261;54.090;13.382;2023-06-22T05:52:38;8.90;;;6.70;;
52320;SDS011;38261;54.090;13.382;2023-06-22T05:54:00;9.57;;;6.57;;
52320;SDS011;38261;54.090;13.382;2023-06-22T05:55:22;13.37;;;6.90;;
52320;SDS011;38261;54.090;13.382;2023-06-22T05:56:44;9.57;;;6.30;;
52320;SDS011;38261;54.090;13.382;2023-06-22T05:58:06;7.20;;;5.67;;
52320;SDS011;38261;54.090;13.382;2023-06-22T05:59:29;9.03;;;5.63;;
52320;SDS011;38261;54.090;13.382;2023-06-22T06:00:51;8.53;;;6.07;;
52320;SDS011;38261;54.090;13.382;2023-06-22T06:02:13;9.90;;;6.70;;
52320;SDS011;38261;54.090;13.382;2023-06-22T06:03:35;8.87;;;7.40;;
52320;SDS011;38261;54.090;13.382;2023-06-22T06:05:03;11.10;;;7.03;;
52320;SDS011;38261;54.090;13.382;2023-06-22T06:06:26;13.20;;;6.83;;
52320;SDS011;38261;54.090;13.382;2023-06-22T06:07:50;8.63;;;7.07;;
52320;SDS011;38261;54.090;13.382;2023-06-22T06:09:12;10.80;;;6.97;;
52320;SDS011;38261;54.090;13.382;2023-06-22T06:10:35;9.33;;;6.50;;
52320;SDS011;38261;54.090;13.382;2023-06-22T06:11:57;10.33;;;7.30;;
52320;SDS011;38261;54.090;13.382;2023-06-22T06:13:19;9.77;;;6.63;;
52320;SDS011;38261;54.090;13.382;2023-06-22T06:14:41;9.20;;;6.47;;
52320;SDS011;38261;54.090;13.382;2023-06-22T06:16:03;10.77;;;6.63;;
52320;SDS011;38261;54.090;13.382;2023-06-22T06:17:26;8.00;;;6.07;;
52320;SDS011;38261;54.090;13.382;2023-06-22T06:18:48;9.10;;;6.67;;
52320;SDS011;38261;54.090;13.382;2023-06-22T06:20:12;8.97;;;6.10;;
52320;SDS011;38261;54.090;13.382;2023-06-22T06:21:34;9.03;;;6.50;;
52320;SDS011;38261;54.090;13.382;2023-06-22T06:22:56;6.83;;;5.70;;
52320;SDS011;38261;54.090;13.382;2023-06-22T06:24:18;12.93;;;5.80;;
52320;SDS011;38261;54.090;13.382;2023-06-22T06:25:41;8.50;;;5.10;;
52320;SDS011;38261;54.090;13.382;2023-06-22T06:27:03;7.40;;;5.07;;
52320;SDS011;38261;54.090;13.382;2023-06-22T06:28:26;7.03;;;5.30;;
52320;SDS011;38261;54.090;13.382;2023-06-22T06:29:48;6.77;;;5.13;;
52320;SDS011;38261;54.090;13.382;2023-06-22T06:31:10;7.37;;;5.13;;
52320;SDS011;38261;54.090;13.382;2023-06-22T06:32:34;8.30;;;4.73;;
52320;SDS011;38261;54.090;13.382;2023-06-22T06:33:56;8.73;;;4.40;;
52320;SDS011;38261;54.090;13.382;2023-06-22T06:35:18;8.40;;;4.00;;
52320;SDS011;38261;54.090;13.382;2023-06-22T06:36:40;5.93;;;3.70;;
52320;SDS011;38261;54.090;13.382;2023-06-22T06:38:02;7.07;;;3.63;;
52320;SDS011;38261;54.090;13.382;2023-06-22T06:39:25;9.27;;;4.00;;
52320;SDS011;38261;54.090;13.382;2023-06-22T06:40:47;9.17;;;5.13;;
52320;SDS011;38261;54.090;13.382;2023-06-22T06:42:10;8.30;;;4.13;;
52320;SDS011;38261;54.090;13.382;2023-06-22T06:43:32;5.40;;;4.60;;
52320;SDS011;38261;54.090;13.382;2023-06-22T06:44:55;5.27;;;3.63;;
52320;SDS011;38261;54.090;13.382;2023-06-22T06:46:17;5.63;;;3.70;;
52320;SDS011;38261;54.090;13.382;2023-06-22T06:47:40;12.70;;;4.60;;
52320;SDS011;38261;54.090;13.382;2023-06-22T06:49:03;9.10;;;4.30;;
52320;SDS011;38261;54.090;13.382;2023-06-22T06:50:26;4.97;;;3.57;;
52320;SDS011;38261;54.090;13.382;2023-06-22T06:51:49;5.70;;;3.97;;
52320;SDS011;38261;54.090;13.382;2023-06-22T06:53:12;7.97;;;3.77;;
52320;SDS011;38261;54.090;13.382;2023-06-22T06:54:34;8.23;;;4.83;;
52320;SDS011;38261;54.090;13.382;2023-06-22T06:55:57;4.20;;;3.67;;
52320;SDS011;38261;54.090;13.382;2023-06-22T06:57:19;7.10;;;4.10;;
52320;SDS011;38261;54.090;13.382;2023-06-22T06:58:41;10.43;;;4.30;;
52320;SDS011;38261;54.090;13.382;2023-06-22T07:00:07;10.80;;;4.10;;
52320;SDS011;38261;54.090;13.382;2023-06-22T07:01:33;3.93;;;3.20;;
52320;SDS011;38261;54.090;13.382;2023-06-22T07:02:57;6.07;;;3.70;;
52320;SDS011;38261;54.090;13.382;2023-06-22T07:04:19;4.07;;;3.07;;
52320;SDS011;38261;54.090;13.382;2023-06-22T07:05:42;5.43;;;3.67;;
52320;SDS011;38261;54.090;13.382;2023-06-22T07:07:04;10.40;;;3.20;;
52320;SDS011;38261;54.090;13.382;2023-06-22T07:08:27;3.40;;;3.10;;
52320;SDS011;38261;54.090;13.382;2023-06-22T07:09:49;5.23;;;3.23;;
52320;SDS011;38261;54.090;13.382;2023-06-22T07:11:12;6.33;;;3.07;;
52320;SDS011;38261;54.090;13.382;2023-06-22T07:12:34;5.37;;;3.33;;
52320;SDS011;38261;54.090;13.382;2023-06-22T07:13:57;4.50;;;3.07;;
52320;SDS011;38261;54.090;13.382;2023-06-22T07:15:20;11.57;;;3.37;;
52320;SDS011;38261;54.090;13.382;2023-06-22T07:16:42;5.77;;;3.37;;
52320;SDS011;38261;54.090;13.382;2023-06-22T07:18:05;10.17;;;3.50;;
52320;SDS011;38261;54.090;13.382;2023-06-22T07:19:28;4.43;;;3.50;;
52320;SDS011;38261;54.090;13.382;2023-06-22T07:20:50;6.67;;;3.40;;
52320;SDS011;38261;54.090;13.382;2023-06-22T07:22:13;4.20;;;2.83;;
52320;SDS011;38261;54.090;13.382;2023-06-22T07:23:35;5.77;;;3.47;;
52320;SDS011;38261;54.090;13.382;2023-06-22T07:24:58;3.60;;;2.20;;
52320;SDS011;38261;54.090;13.382;2023-06-22T07:26:20;4.67;;;3.30;;
52320;SDS011;38261;54.090;13.382;2023-06-22T07:27:46;6.60;;;2.93;;
52320;SDS011;38261;54.090;13.382;2023-06-22T07:29:19;7.90;;;2.83;;
52320;SDS011;38261;54.090;13.382;2023-06-22T07:30:42;6.90;;;3.40;;
52320;SDS011;38261;54.090;13.382;2023-06-22T07:32:05;4.30;;;3.27;;
52320;SDS011;38261;54.090;13.382;2023-06-22T07:33:27;4.93;;;3.30;;
52320;SDS011;38261;54.090;13.382;2023-06-22T07:34:50;4.87;;;2.80;;
52320;SDS011;38261;54.090;13.382;2023-06-22T07:36:12;3.67;;;2.20;;
52320;SDS011;38261;54.090;13.382;2023-06-22T07:37:35;4.57;;;2.83;;
52320;SDS011;38261;54.090;13.382;2023-06-22T07:38:57;7.63;;;2.57;;
52320;SDS011;38261;54.090;13.382;2023-06-22T07:40:20;2.17;;;1.90;;
52320;SDS011;38261;54.090;13.382;2023-06-22T07:41:43;3.00;;;2.13;;
52320;SDS011;38261;54.090;13.382;2023-06-22T07:43:05;4.37;;;2.33;;
52320;SDS011;38261;54.090;13.382;2023-06-22T07:44:28;3.80;;;2.60;;
52320;SDS011;38261;54.090;13.382;2023-06-22T07:45:50;4.10;;;2.60;;
52320;SDS011;38261;54.090;13.382;2023-06-22T07:47:14;4.00;;;3.20;;
52320;SDS011;38261;54.090;13.382;2023-06-22T07:48:37;6.70;;;2.37;;
52320;SDS011;38261;54.090;13.382;2023-06-22T07:50:01;4.80;;;2.23;;
52320;SDS011;38261;54.090;13.382;2023-06-22T07:51:24;3.13;;;2.20;;
52320;SDS011;38261;54.090;13.382;2023-06-22T07:52:49;5.00;;;2.50;;
52320;SDS011;38261;54.090;13.382;2023-06-22T07:54:14;3.40;;;2.20;;
52320;SDS011;38261;54.090;13.382;2023-06-22T07:55:38;3.20;;;2.43;;
52320;SDS011;38261;54.090;13.382;2023-06-22T07:57:00;4.90;;;2.47;;
52320;SDS011;38261;54.090;13.382;2023-06-22T07:58:23;7.33;;;4.03;;
52320;SDS011;38261;54.090;13.382;2023-06-22T07:59:45;3.53;;;2.43;;
52320;SDS011;38261;54.090;13.382;2023-06-22T08:01:08;2.53;;;2.10;;
52320;SDS011;38261;54.090;13.382;2023-06-22T08:02:31;3.73;;;2.50;;
52320;SDS011;38261;54.090;13.382;2023-06-22T08:03:53;2.70;;;1.77;;
52320;SDS011;38261;54.090;13.382;2023-06-22T08:05:16;2.10;;;1.87;;
52320;SDS011;38261;54.090;13.382;2023-06-22T08:06:54;3.80;;;2.30;;
52320;SDS011;38261;54.090;13.382;2023-06-22T08:08:17;3.63;;;2.00;;
52320;SDS011;38261;54.090;13.382;2023-06-22T08:09:42;2.70;;;2.23;;
52320;SDS011;38261;54.090;13.382;2023-06-22T08:11:08;4.30;;;1.90;;
52320;SDS011;38261;54.090;13.382;2023-06-22T08:12:31;4.37;;;2.10;;
52320;SDS011;38261;54.090;13.382;2023-06-22T08:13:53;2.37;;;1.90;;
52320;SDS011;38261;54.090;13.382;2023-06-22T08:15:19;4.30;;;2.27;;
52320;SDS011;38261;54.090;13.382;2023-06-22T08:16:43;2.43;;;1.87;;
52320;SDS011;38261;54.090;13.382;2023-06-22T08:18:06;2.53;;;2.10;;